Time;durP1;ratioP1;P1;durP2;ratioP2;P2;SDS_P1;SDS_P2;PMS_P1;PMS_P2;Temp;Humidity;BMP_temperature;BMP_pressure;BME280_temperature;BME280_humidity;BME280_pressure;Samples;Min_cycle;Max_cycle;Signal;HPM_P1;HPM_P2
2022/09/11 00:04:54;;;;;;;0.10;0.10;;;;;;;13.26;100.00;101551.72;10369985;28;20023;-77
2022/09/11 00:09:54;;;;;;;0.10;0.10;;;;;;;13.21;100.00;101553.19;10369991;28;20044;-77
2022/09/11 00:14:54;;;;;;;0.10;0.10;;;;;;;13.18;100.00;101564.16;10369316;28;20311;-76
2022/09/11 00:19:55;;;;;;;0.00;0.00;;;;;;;13.10;100.00;101551.59;10352165;28;20032;-77
2022/09/11 00:24:56;;;;;;;0.10;0.10;;;;;;;13.05;100.00;101562.75;10364090;28;20591;-77
2022/09/11 00:29:56;;;;;;;0.10;0.10;;;;;;;12.99;100.00;101563.41;10365341;28;20538;-77
2022/09/11 00:34:57;;;;;;;0.10;0.10;;;;;;;13.00;100.00;101566.91;10368510;28;20104;-77
2022/09/11 00:39:57;;;;;;;0.10;0.10;;;;;;;13.02;100.00;101571.09;10369256;28;20026;-77
2022/09/11 00:45:01;;;;;;;0.05;0.05;;;;;;;13.02;100.00;101575.63;10368488;28;20045;-76
2022/09/11 00:50:11;;;;;;;0.10;0.10;;;;;;;13.03;100.00;101586.16;10368486;28;20384;-76
2022/09/11 00:55:15;;;;;;;0.10;0.10;;;;;;;13.04;100.00;101579.81;10360556;28;20057;-76
2022/09/11 01:00:15;;;;;;;0.10;0.10;;;;;;;13.05;100.00;101576.13;10348584;28;20017;-77
2022/09/11 01:05:17;;;;;;;0.10;0.10;;;;;;;13.11;100.00;101580.84;10350143;28;20025;-77
2022/09/11 01:10:17;;;;;;;0.10;0.10;;;;;;;13.11;100.00;101580.84;10358478;28;20025;-77
2022/09/11 01:15:18;;;;;;;0.10;0.10;;;;;;;13.08;100.00;101575.81;10367673;28;20022;-75
2022/09/11 01:20:58;;;;;;;0.10;0.10;;;;;;;13.01;100.00;101569.44;10367901;28;20076;-76
2022/09/11 01:26:27;;;;;;;0.10;0.10;;;;;;;12.79;100.00;101575.28;10182590;29;20455;-76
2022/09/11 01:31:35;;;;;;;0.10;0.10;;;;;;;12.64;100.00;101577.66;10339813;28;20033;-77
2022/09/11 01:36:43;;;;;;;0.08;0.08;;;;;;;12.56;100.00;101574.91;10367409;28;20026;-76
2022/09/11 01:41:53;;;;;;;0.10;0.10;;;;;;;12.48;100.00;101574.84;10378587;28;20080;-77
2022/09/11 01:46:53;;;;;;;0.10;0.10;;;;;;;12.49;100.00;101584.56;10380667;28;20026;-76
2022/09/11 01:52:02;;;;;;;0.00;0.00;;;;;;;12.60;100.00;101589.69;10379985;28;20281;-76
2022/09/11 01:57:08;;;;;;;0.10;0.10;;;;;;;12.65;100.00;101598.03;10370940;28;20029;-76
2022/09/11 02:02:12;;;;;;;0.10;0.10;;;;;;;12.73;100.00;101598.13;10362811;28;20095;-76
2022/09/11 02:07:24;;;;;;;0.05;0.05;;;;;;;12.80;100.00;101601.00;10380394;28;20026;-76
2022/09/11 02:12:30;;;;;;;0.10;0.10;;;;;;;12.87;100.00;101604.75;10363543;28;20029;-77
2022/09/11 02:17:52;;;;;;;0.00;0.00;;;;;;;12.97;100.00;101613.50;10384211;28;20029;-77
2022/09/11 02:22:53;;;;;;;0.10;0.10;;;;;;;13.04;100.00;101611.91;10379617;28;20041;-77
2022/09/11 02:27:53;;;;;;;0.20;0.20;;;;;;;13.11;100.00;101618.28;10379387;23;20374;-75
2022/09/11 02:32:54;;;;;;;0.10;0.10;;;;;;;13.20;100.00;101618.34;10326882;28;20089;-75
2022/09/11 02:38:20;;;;;;;0.10;0.10;;;;;;;13.27;100.00;101622.13;10313124;28;20026;-76
2022/09/11 02:43:37;;;;;;;0.10;0.10;;;;;;;13.30;100.00;101617.31;10309221;28;20025;-75
2022/09/11 02:49:00;;;;;;;0.05;0.05;;;;;;;13.35;100.00;101622.16;10328978;28;20458;-75
2022/09/11 02:54:30;;;;;;;0.10;0.10;;;;;;;13.39;100.00;101620.03;10310930;28;20493;-75
2022/09/11 02:59:35;;;;;;;0.10;0.10;;;;;;;13.40;100.00;101625.22;10300131;28;20138;-75
2022/09/11 03:04:36;;;;;;;0.10;0.10;;;;;;;13.42;100.00;101623.22;10314097;28;20041;-75
2022/09/11 03:09:36;;;;;;;0.10;0.10;;;;;;;13.42;100.00;101625.91;10299481;28;20030;-75
2022/09/11 03:14:37;;;;;;;0.10;0.10;;;;;;;13.38;100.00;101627.22;10310620;28;20058;-75
2022/09/11 03:19:37;;;;;;;0.10;0.10;;;;;;;13.32;100.00;101630.50;10283268;28;20081;-75
2022/09/11 03:24:38;;;;;;;0.10;0.10;;;;;;;13.27;100.00;101622.97;10312992;28;20019;-75
2022/09/11 03:29:39;;;;;;;0.10;0.10;;;;;;;13.25;100.00;101621.41;10304237;28;20022;-75
2022/09/11 03:34:39;;;;;;;0.10;0.10;;;;;;;13.18;100.00;101623.88;10297473;28;20030;-75
2022/09/11 03:39:40;;;;;;;0.10;0.10;;;;;;;13.10;100.00;101619.31;10307068;28;20033;-75
2022/09/11 03:44:40;;;;;;;0.10;0.10;;;;;;;13.01;100.00;101617.56;10276204;28;20038;-75
2022/09/11 03:49:41;;;;;;;0.10;0.10;;;;;;;12.94;100.00;101619.16;10319066;28;20027;-75
2022/09/11 03:54:41;;;;;;;0.10;0.10;;;;;;;12.90;100.00;101631.19;10318106;28;20077;-75
2022/09/11 03:59:41;;;;;;;0.10;0.10;;;;;;;12.81;100.00;101640.13;10313618;28;20041;-75
2022/09/11 04:04:42;;;;;;;0.10;0.10;;;;;;;12.73;100.00;101640.88;10326249;28;20011;-75
2022/09/11 04:09:42;;;;;;;0.00;0.00;;;;;;;12.69;100.00;101639.53;10293293;28;20019;-75
2022/09/11 04:14:42;;;;;;;0.10;0.10;;;;;;;12.64;100.00;101642.66;10305496;28;20027;-75
2022/09/11 04:19:42;;;;;;;0.00;0.00;;;;;;;12.65;100.00;101652.38;10287473;28;20030;-75
2022/09/11 04:24:43;;;;;;;0.00;0.00;;;;;;;12.72;100.00;101665.13;10310813;28;20035;-75
2022/09/11 04:29:43;;;;;;;0.10;0.10;;;;;;;12.79;100.00;101664.34;10293260;28;20469;-75
2022/09/11 04:34:43;;;;;;;0.10;0.10;;;;;;;12.86;100.00;101689.47;10310082;28;20369;-75
2022/09/11 04:39:44;;;;;;;0.00;0.00;;;;;;;12.83;100.00;101688.94;10295151;28;20071;-75
2022/09/11 04:44:45;;;;;;;0.10;0.10;;;;;;;12.69;100.00;101690.31;10291690;28;20019;-75
2022/09/11 04:49:45;;;;;;;0.10;0.10;;;;;;;12.56;100.00;101708.53;10310244;28;20488;-75
2022/09/11 04:54:47;;;;;;;0.00;0.00;;;;;;;12.46;100.00;101697.94;10311552;28;20243;-75
2022/09/11 04:59:49;;;;;;;0.10;0.10;;;;;;;12.44;100.00;101706.06;10293285;28;20023;-75
2022/09/11 05:04:49;;;;;;;0.10;0.10;;;;;;;12.45;100.00;101701.59;10314759;28;20097;-75
2022/09/11 05:09:53;;;;;;;0.10;0.10;;;;;;;12.50;100.00;101706.47;10296135;28;20077;-75
2022/09/11 05:14:53;;;;;;;0.10;0.10;;;;;;;12.55;100.00;101715.72;10307138;28;20084;-75
2022/09/11 05:19:54;;;;;;;0.03;0.03;;;;;;;12.60;100.00;101715.28;10334256;28;20168;-75
2022/09/11 05:24:55;;;;;;;0.10;0.10;;;;;;;12.68;100.00;101704.66;10307709;28;20018;-75
2022/09/11 05:29:55;;;;;;;0.10;0.10;;;;;;;12.82;100.00;101709.47;10300436;28;20022;-75
2022/09/11 05:34:55;;;;;;;0.10;0.10;;;;;;;12.95;100.00;101718.97;10280522;28;20022;-75
2022/09/11 05:39:58;;;;;;;0.00;0.00;;;;;;;13.01;100.00;101718.34;10334988;28;20050;-75
2022/09/11 05:44:58;;;;;;;0.10;0.10;;;;;;;13.06;100.00;101721.38;10317400;28;20027;-75
2022/09/11 05:49:58;;;;;;;0.00;0.00;;;;;;;13.17;100.00;101739.88;10333805;28;20050;-75
2022/09/11 05:54:59;;;;;;;0.10;0.10;;;;;;;13.23;100.00;101743.78;10313990;28;20022;-75
2022/09/11 05:59:59;;;;;;;0.10;0.10;;;;;;;13.24;100.00;101753.50;10295491;28;20019;-75
2022/09/11 06:04:59;;;;;;;0.10;0.10;;;;;;;13.29;100.00;101752.09;10282508;28;20060;-75
2022/09/11 06:10:00;;;;;;;0.08;0.08;;;;;;;13.43;100.00;101763.22;10296007;28;20042;-76
2022/09/11 06:15:00;;;;;;;0.10;0.10;;;;;;;13.45;100.00;101769.25;10292051;28;20018;-75
2022/09/11 06:20:01;;;;;;;0.10;0.10;;;;;;;13.43;100.00;101761.38;10311489;28;20254;-75
2022/09/11 06:25:01;;;;;;;0.10;0.10;;;;;;;13.50;100.00;101767.81;10321272;28;20023;-75
2022/09/11 06:30:01;;;;;;;0.10;0.10;;;;;;;13.54;100.00;101773.69;10315572;28;20019;-75
2022/09/11 06:35:02;;;;;;;0.10;0.10;;;;;;;13.56;100.00;101777.06;10281485;28;20134;-75
2022/09/11 06:40:02;;;;;;;0.10;0.10;;;;;;;13.57;100.00;101781.41;10298424;28;20019;-75
2022/09/11 06:45:04;;;;;;;0.10;0.10;;;;;;;13.61;100.00;101781.91;10297716;28;20490;-76
2022/09/11 06:50:05;;;;;;;0.10;0.10;;;;;;;13.63;100.00;101782.63;10283029;28;20074;-75
2022/09/11 06:55:06;;;;;;;0.10;0.10;;;;;;;13.77;100.00;101785.56;10299316;28;20138;-75
2022/09/11 07:00:07;;;;;;;0.05;0.05;;;;;;;13.82;100.00;101783.25;10299015;28;20034;-75
2022/09/11 07:05:09;;;;;;;0.10;0.10;;;;;;;13.89;100.00;101799.53;10315292;28;20076;-75
2022/09/11 07:10:09;;;;;;;0.10;0.10;;;;;;;14.01;100.00;101798.28;10321538;28;20077;-75
2022/09/11 07:15:10;;;;;;;0.00;0.00;;;;;;;14.11;100.00;101798.19;10321457;28;20061;-75
2022/09/11 07:20:10;;;;;;;0.10;0.10;;;;;;;14.14;100.00;101791.66;10338966;28;20037;-75
2022/09/11 07:25:11;;;;;;;0.10;0.10;;;;;;;14.30;100.00;101794.41;10325071;28;20429;-75
2022/09/11 07:30:12;;;;;;;0.10;0.10;;;;;;;14.44;100.00;101798.34;10336119;28;20409;-75
2022/09/11 07:35:15;;;;;;;0.00;0.00;;;;;;;14.60;100.00;101808.31;10317496;28;20496;-75
2022/09/11 07:40:15;;;;;;;0.10;0.10;;;;;;;14.84;100.00;101810.25;10337125;28;20029;-75
2022/09/11 07:45:16;;;;;;;0.10;0.10;;;;;;;15.19;100.00;101819.91;10337162;28;20268;-75
2022/09/11 07:50:16;;;;;;;0.10;0.10;;;;;;;15.50;100.00;101824.59;10318436;28;20433;-75
2022/09/11 07:55:17;;;;;;;0.10;0.10;;;;;;;15.44;100.00;101822.59;10319079;28;20111;-75
2022/09/11 08:00:18;;;;;;;0.10;0.10;;;;;;;15.28;100.00;101826.94;10294121;28;20050;-75
2022/09/11 08:05:18;;;;;;;0.10;0.10;;;;;;;15.55;100.00;101830.31;10293016;28;20374;-75
2022/09/11 08:10:18;;;;;;;0.10;0.10;;;;;;;16.00;100.00;101827.16;10310702;28;20030;-75
2022/09/11 08:15:20;;;;;;;0.00;0.00;;;;;;;16.09;100.00;101832.50;10290955;28;20022;-75
2022/09/11 08:20:20;;;;;;;0.00;0.00;;;;;;;16.09;100.00;101844.09;10300037;28;20022;-75
2022/09/11 08:25:22;;;;;;;0.10;0.10;;;;;;;16.18;100.00;101843.06;10349487;23;20052;-77
2022/09/11 08:30:23;;;;;;;0.10;0.10;;;;;;;16.46;100.00;101837.25;10387445;28;20026;-76
2022/09/11 08:35:23;;;;;;;0.08;0.08;;;;;;;16.84;100.00;101849.09;10395175;28;20443;-77
2022/09/11 08:40:24;;;;;;;0.10;0.10;;;;;;;17.13;100.00;101858.34;10390463;28;20431;-77
2022/09/11 08:45:30;;;;;;;0.10;0.10;;;;;;;18.06;100.00;101855.47;10363854;28;20268;-76
2022/09/11 08:50:41;;;;;;;0.10;0.10;;;;;;;18.40;100.00;101859.50;10395287;28;20056;-77
2022/09/11 08:55:52;;;;;;;0.10;0.10;;;;;;;19.44;100.00;101864.75;10362111;28;20018;-76
2022/09/11 09:01:11;;;;;;;0.00;0.00;;;;;;;20.92;100.00;101871.03;10396370;28;20021;-76
2022/09/11 09:06:29;;;;;;;0.00;0.00;;;;;;;22.11;100.00;101865.00;10382616;28;20025;-76
2022/09/11 09:11:51;;;;;;;0.00;0.00;;;;;;;21.68;100.00;101860.81;10378998;28;20037;-77
2022/09/11 09:17:01;;;;;;;0.00;0.00;;;;;;;21.11;100.00;101862.13;10378948;28;20491;-77
2022/09/11 09:22:22;;;;;;;0.00;0.00;;;;;;;20.26;100.00;101858.78;10377984;28;20022;-77
2022/09/11 09:27:28;;;;;;;0.10;0.10;;;;;;;20.66;100.00;101864.47;10365224;28;20391;-76
2022/09/11 09:32:32;;;;;;;0.10;0.10;;;;;;;21.36;100.00;101861.59;10379100;28;20029;-77
2022/09/11 09:37:33;;;;;;;0.00;0.00;;;;;;;21.31;100.00;101859.47;10388618;28;20028;-77
2022/09/11 09:42:42;;;;;;;0.00;0.00;;;;;;;20.82;100.00;101863.28;10363795;28;20016;-77
2022/09/11 09:47:45;;;;;;;0.10;0.10;;;;;;;20.21;100.00;101866.66;10391309;28;20022;-77
2022/09/11 09:52:47;;;;;;;0.00;0.00;;;;;;;20.39;100.00;101865.31;10385398;28;20060;-77
2022/09/11 09:57:48;;;;;;;0.00;0.00;;;;;;;20.90;100.00;101864.97;10370400;28;20120;-77
2022/09/11 10:02:53;;;;;;;0.00;0.00;;;;;;;21.68;100.00;101863.53;10378489;28;20536;-77
2022/09/11 10:08:00;;;;;;;0.00;0.00;;;;;;;21.88;100.00;101862.69;10387115;28;20017;-77
2022/09/11 10:13:07;;;;;;;0.00;0.00;;;;;;;22.38;100.00;101857.66;10389457;28;20499;-75
2022/09/11 10:18:32;;;;;;;0.00;0.00;;;;;;;22.79;100.00;101860.03;10398471;28;20480;-75
2022/09/11 10:23:45;;;;;;;0.10;0.10;;;;;;;23.08;100.00;101857.84;10398036;28;20075;-75
2022/09/11 10:28:46;;;;;;;0.00;0.00;;;;;;;23.10;100.00;101865.78;10370466;28;20022;-75
2022/09/11 10:33:57;;;;;;;0.00;0.00;;;;;;;21.88;100.00;101860.81;10398783;28;20396;-76
2022/09/11 10:39:00;;;;;;;0.00;0.00;;;;;;;20.98;100.00;101870.22;10388850;28;20037;-76
2022/09/11 10:44:06;;;;;;;0.00;0.00;;;;;;;20.46;100.00;101863.50;10388352;28;20479;-75
2022/09/11 10:49:22;;;;;;;0.10;0.10;;;;;;;20.26;100.00;101866.06;10403253;28;20108;-75
2022/09/11 10:54:47;;;;;;;0.00;0.00;;;;;;;20.16;100.00;101863.72;10410294;28;20032;-75
2022/09/11 10:59:56;;;;;;;0.00;0.00;;;;;;;19.60;100.00;101875.28;10396434;28;20129;-76
2022/09/11 11:05:02;;;;;;;0.10;0.10;;;;;;;19.16;100.00;101870.03;10408238;28;20018;-77
2022/09/11 11:10:08;;;;;;;0.10;0.10;;;;;;;19.03;100.00;101868.03;10391756;28;20037;-76
2022/09/11 11:16:00;;;;;;;0.10;0.10;;;;;;;18.97;100.00;101879.59;10388982;28;20109;-77
2022/09/11 11:21:22;;;;;;;0.10;0.10;;;;;;;18.91;100.00;101873.09;10393202;28;20048;-76
2022/09/11 11:26:51;;;;;;;0.07;0.07;;;;;;;19.06;100.00;101869.53;10378674;28;20030;-76
2022/09/11 11:32:05;;;;;;;0.00;0.00;;;;;;;19.35;100.00;101877.53;10389762;28;20485;-76
2022/09/11 11:37:19;;;;;;;0.10;0.10;;;;;;;19.68;100.00;101867.06;10377337;28;20059;-76
2022/09/11 11:42:41;;;;;;;0.00;0.00;;;;;;;19.74;100.00;101875.44;10414119;28;20018;-76
2022/09/11 11:47:43;;;;;;;0.00;0.00;;;;;;;19.80;100.00;101878.19;10413963;28;20476;-76
2022/09/11 11:53:00;;;;;;;0.00;0.00;;;;;;;20.16;100.00;101871.84;10413400;28;20057;-75
2022/09/11 11:58:36;;;;;;;0.00;0.00;;;;;;;20.37;100.00;101873.63;10400452;28;20028;-75
2022/09/11 12:03:49;;;;;;;0.00;0.00;;;;;;;20.49;100.00;101877.47;10380131;28;20041;-76
2022/09/11 12:08:50;;;;;;;0.00;0.00;;;;;;;20.39;100.00;101871.59;10373617;28;20396;-75
2022/09/11 12:13:53;;;;;;;0.10;0.10;;;;;;;20.32;100.00;101879.63;10375368;28;20037;-76
2022/09/11 12:19:26;;;;;;;0.10;0.10;;;;;;;20.31;100.00;101882.56;10402071;28;20021;-76
2022/09/11 12:24:53;;;;;;;0.00;0.00;;;;;;;20.23;100.00;101869.19;10360581;28;20025;-76
2022/09/11 12:29:56;;;;;;;0.10;0.10;;;;;;;20.26;100.00;101874.19;10370067;28;20033;-76
2022/09/11 12:35:03;;;;;;;0.10;0.10;;;;;;;20.32;100.00;101873.41;10393879;28;20473;-76
2022/09/11 12:40:31;;;;;;;0.10;0.10;;;;;;;20.45;100.00;101872.63;10411767;28;20049;-76
2022/09/11 12:45:35;;;;;;;0.00;0.00;;;;;;;20.54;100.00;101876.91;10402223;28;20067;-76
2022/09/11 12:50:37;;;;;;;0.08;0.08;;;;;;;20.48;100.00;101866.84;10358565;28;20121;-76
2022/09/11 12:55:51;;;;;;;0.10;0.10;;;;;;;20.56;100.00;101880.22;10352815;28;20032;-76
2022/09/11 13:01:07;;;;;;;0.00;0.00;;;;;;;20.49;100.00;101866.63;10370313;28;20036;-76
2022/09/11 13:06:12;;;;;;;0.08;0.08;;;;;;;20.43;100.00;101863.91;10370391;28;20437;-76
2022/09/11 13:11:35;;;;;;;0.00;0.00;;;;;;;20.48;100.00;101854.16;10370120;28;20072;-76
2022/09/11 13:16:43;;;;;;;0.10;0.10;;;;;;;20.52;100.00;101852.72;10369946;28;20370;-76
2022/09/11 13:21:44;;;;;;;0.00;0.00;;;;;;;20.60;100.00;101853.63;10369481;28;20500;-76
2022/09/11 13:26:45;;;;;;;0.00;0.00;;;;;;;20.54;100.00;101845.25;10368687;28;20026;-76
2022/09/11 13:31:45;;;;;;;0.00;0.00;;;;;;;20.57;100.00;101839.44;10367932;28;20129;-76
2022/09/11 13:36:47;;;;;;;0.00;0.00;;;;;;;20.51;100.00;101839.38;10366883;28;20060;-75
2022/09/11 13:41:49;;;;;;;0.00;0.00;;;;;;;20.55;100.00;101838.78;10369034;28;20076;-75
2022/09/11 13:46:51;;;;;;;0.05;0.05;;;;;;;20.58;100.00;101842.97;10378417;28;20052;-75
2022/09/11 13:51:51;;;;;;;0.00;0.00;;;;;;;20.56;100.00;101832.34;10386855;28;20476;-75
2022/09/11 13:56:54;;;;;;;0.10;0.10;;;;;;;20.53;100.00;101831.91;10376743;28;20108;-74
2022/09/11 14:02:00;;;;;;;0.03;0.03;;;;;;;20.49;100.00;101828.75;10404277;28;20064;-75
2022/09/11 14:07:01;;;;;;;0.00;0.00;;;;;;;20.52;100.00;101832.91;10370309;28;20024;-75
2022/09/11 14:12:02;;;;;;;0.00;0.00;;;;;;;20.46;100.00;101836.44;10392624;28;20021;-75
2022/09/11 14:17:02;;;;;;;0.10;0.10;;;;;;;20.42;100.00;101829.72;10387642;28;20026;-76
2022/09/11 14:22:14;;;;;;;0.00;0.00;;;;;;;20.44;100.00;101828.50;10388389;28;20056;-75
2022/09/11 14:27:44;;;;;;;0.10;0.10;;;;;;;20.43;100.00;101826.00;10338512;22;1228910;-73
2022/09/11 14:32:44;;;;;;;0.10;0.10;;;;;;;20.30;100.00;101826.75;10271548;28;20053;-75
2022/09/11 14:37:45;;;;;;;0.00;0.00;;;;;;;20.26;100.00;101828.19;10285452;28;20029;-74
2022/09/11 14:42:46;;;;;;;0.10;0.10;;;;;;;20.13;100.00;101824.38;10267963;28;20015;-74
2022/09/11 14:47:46;;;;;;;0.00;0.00;;;;;;;20.03;100.00;101821.19;10290132;28;20027;-74
2022/09/11 14:52:46;;;;;;;0.10;0.10;;;;;;;20.00;100.00;101816.16;10274075;28;20027;-74
2022/09/11 14:57:47;;;;;;;0.10;0.10;;;;;;;19.84;100.00;101827.31;10274930;28;20524;-74
2022/09/11 15:02:47;;;;;;;0.10;0.10;;;;;;;19.66;100.00;101816.94;10291137;28;20033;-74
2022/09/11 15:07:47;;;;;;;0.10;0.10;;;;;;;19.51;100.00;101824.28;10292203;28;20102;-74
2022/09/11 15:12:48;;;;;;;0.00;0.00;;;;;;;19.39;100.00;101819.38;10291258;28;20019;-74
2022/09/11 15:17:48;;;;;;;0.10;0.10;;;;;;;19.29;100.00;101826.97;10291698;28;20026;-74
2022/09/11 15:22:48;;;;;;;0.10;0.10;;;;;;;19.20;100.00;101812.75;10290796;28;20023;-74
2022/09/11 15:27:52;;;;;;;0.10;0.10;;;;;;;19.08;100.00;101799.94;10290961;28;20393;-74
2022/09/11 15:32:53;;;;;;;0.10;0.10;;;;;;;19.04;100.00;101810.31;10273329;28;20019;-74
2022/09/11 15:37:53;;;;;;;0.00;0.00;;;;;;;18.96;100.00;101808.53;10290276;28;20034;-74
2022/09/11 15:42:55;;;;;;;0.10;0.10;;;;;;;18.85;100.00;101816.28;10289908;28;20022;-75
2022/09/11 15:47:58;;;;;;;0.10;0.10;;;;;;;18.75;100.00;101808.50;10270964;28;20023;-75
2022/09/11 15:52:58;;;;;;;0.10;0.10;;;;;;;18.68;100.00;101805.72;10287546;28;20027;-74
2022/09/11 15:57:59;;;;;;;0.10;0.10;;;;;;;18.69;100.00;101801.16;10289811;28;20026;-74
2022/09/11 16:02:59;;;;;;;0.10;0.10;;;;;;;18.68;100.00;101800.31;10289256;28;20026;-74
2022/09/11 16:07:59;;;;;;;0.10;0.10;;;;;;;18.66;100.00;101806.91;10290122;28;20446;-74
2022/09/11 16:13:00;;;;;;;0.10;0.10;;;;;;;18.63;100.00;101808.13;10289341;28;20045;-74
2022/09/11 16:18:00;;;;;;;0.00;0.00;;;;;;;18.60;100.00;101807.69;10271792;28;20410;-74
2022/09/11 16:23:03;;;;;;;0.00;0.00;;;;;;;18.58;100.00;101815.13;10288578;28;20019;-74
2022/09/11 16:28:04;;;;;;;0.10;0.10;;;;;;;18.54;100.00;101810.09;10271500;28;20034;-74
2022/09/11 16:33:05;;;;;;;0.00;0.00;;;;;;;18.46;100.00;101807.50;10288434;28;20038;-75
2022/09/11 16:38:06;;;;;;;0.10;0.10;;;;;;;18.38;100.00;101798.66;10288632;28;20389;-74
2022/09/11 16:43:06;;;;;;;0.10;0.10;;;;;;;18.30;100.00;101788.81;10270418;28;20037;-74
2022/09/11 16:48:08;;;;;;;0.00;0.00;;;;;;;18.22;100.00;101794.31;10287875;28;20039;-74
2022/09/11 16:53:09;;;;;;;0.10;0.10;;;;;;;18.10;100.00;101797.47;10287990;28;20088;-74
2022/09/11 16:58:10;;;;;;;0.10;0.10;;;;;;;17.98;100.00;101784.63;10286390;28;20459;-74
2022/09/11 17:03:11;;;;;;;0.10;0.10;;;;;;;17.82;100.00;101786.47;10267530;28;20384;-74
2022/09/11 17:08:11;;;;;;;0.10;0.10;;;;;;;17.71;100.00;101786.03;10284526;28;20026;-74
2022/09/11 17:13:12;;;;;;;0.10;0.10;;;;;;;17.56;100.00;101788.69;10268886;28;20031;-74
2022/09/11 17:18:12;;;;;;;0.10;0.10;;;;;;;17.44;100.00;101796.38;10287407;28;20394;-75
2022/09/11 17:23:12;;;;;;;0.00;0.00;;;;;;;17.29;100.00;101798.19;10286658;28;20654;-74
2022/09/11 17:28:13;;;;;;;0.10;0.10;;;;;;;17.12;100.00;101803.66;10287312;28;20469;-74
2022/09/11 17:33:14;;;;;;;0.10;0.10;;;;;;;16.97;100.00;101798.22;10269873;28;20027;-74
2022/09/11 17:38:14;;;;;;;0.00;0.00;;;;;;;16.79;100.00;101794.97;10286965;28;20106;-75
2022/09/11 17:43:15;;;;;;;0.10;0.10;;;;;;;16.60;100.00;101796.19;10286085;28;20029;-74
2022/09/11 17:48:16;;;;;;;0.10;0.10;;;;;;;16.40;100.00;101797.63;10269265;28;20027;-74
2022/09/11 17:53:16;;;;;;;0.00;0.00;;;;;;;16.23;100.00;101803.06;10285797;28;20286;-75
2022/09/11 17:58:16;;;;;;;0.10;0.10;;;;;;;16.08;100.00;101802.09;10285598;28;20082;-75
2022/09/11 18:03:21;;;;;;;0.05;0.05;;;;;;;15.94;100.00;101806.34;10285915;28;20019;-75
2022/09/11 18:08:22;;;;;;;0.10;0.10;;;;;;;15.81;100.00;101809.53;10285200;28;20089;-75
2022/09/11 18:13:22;;;;;;;0.10;0.10;;;;;;;15.67;100.00;101799.44;10265097;28;20029;-74
2022/09/11 18:18:23;;;;;;;0.10;0.10;;;;;;;15.56;100.00;101805.13;10285659;28;20042;-75
2022/09/11 18:23:23;;;;;;;0.10;0.10;;;;;;;15.38;100.00;101803.44;10289809;28;20032;-75
2022/09/11 18:28:26;;;;;;;0.10;0.10;;;;;;;15.26;100.00;101812.00;10272493;28;20023;-75
2022/09/11 18:33:26;;;;;;;0.10;0.10;;;;;;;15.12;100.00;101819.69;10292807;28;20528;-75
2022/09/11 18:38:28;;;;;;;0.10;0.10;;;;;;;14.99;100.00;101822.03;10293384;28;20026;-74
2022/09/11 18:43:28;;;;;;;0.10;0.10;;;;;;;14.89;100.00;101824.88;10292514;28;20378;-75
2022/09/11 18:48:28;;;;;;;0.10;0.10;;;;;;;14.83;100.00;101822.81;10275701;28;20019;-75
2022/09/11 18:53:29;;;;;;;0.00;0.00;;;;;;;14.79;100.00;101824.16;10292318;28;20363;-75
2022/09/11 18:58:33;;;;;;;0.10;0.10;;;;;;;14.70;100.00;101825.13;10289097;28;20097;-75
2022/09/11 19:03:35;;;;;;;0.10;0.10;;;;;;;14.57;100.00;101830.09;10291714;28;20390;-75
2022/09/11 19:08:39;;;;;;;0.10;0.10;;;;;;;14.45;100.00;101832.19;10274457;28;20022;-74
2022/09/11 19:13:41;;;;;;;0.10;0.10;;;;;;;14.36;100.00;101825.94;10291647;28;20023;-75
2022/09/11 19:18:41;;;;;;;0.10;0.10;;;;;;;14.30;100.00;101833.78;10292222;28;20382;-75
2022/09/11 19:23:47;;;;;;;0.10;0.10;;;;;;;14.20;100.00;101829.38;10271808;28;20019;-75
2022/09/11 19:28:48;;;;;;;0.10;0.10;;;;;;;14.14;100.00;101834.53;10288899;28;20046;-75
2022/09/11 19:33:48;;;;;;;0.10;0.10;;;;;;;14.01;100.00;101830.41;10289590;28;20034;-75
2022/09/11 19:38:51;;;;;;;0.10;0.10;;;;;;;13.85;100.00;101834.84;10291283;28;20018;-75
2022/09/11 19:43:55;;;;;;;0.10;0.10;;;;;;;13.75;100.00;101843.78;10291222;28;20394;-75
2022/09/11 19:48:58;;;;;;;0.10;0.10;;;;;;;13.74;100.00;101844.78;10273207;28;20023;-75
2022/09/11 19:54:01;;;;;;;0.10;0.10;;;;;;;13.79;100.00;101844.34;10290118;28;20086;-75
2022/09/11 19:59:03;;;;;;;0.20;0.20;;;;;;;13.78;100.00;101848.81;10290175;28;20022;-75
2022/09/11 20:04:04;;;;;;;0.10;0.10;;;;;;;13.76;100.00;101847.31;10289996;28;20023;-75
2022/09/11 20:09:05;;;;;;;0.10;0.10;;;;;;;13.78;100.00;101851.50;10295903;28;20102;-75
2022/09/11 20:14:05;;;;;;;0.10;0.10;;;;;;;13.75;100.00;101848.31;10288852;28;20098;-75
2022/09/11 20:19:05;;;;;;;0.10;0.10;;;;;;;13.66;100.00;101854.59;10272073;28;20030;-75
2022/09/11 20:24:06;;;;;;;0.10;0.10;;;;;;;13.56;100.00;101860.03;10288277;28;20374;-75
2022/09/11 20:29:11;;;;;;;0.00;0.00;;;;;;;13.48;100.00;101867.97;10289145;28;20492;-75
2022/09/11 20:34:11;;;;;;;0.10;0.10;;;;;;;13.41;100.00;101874.91;10323141;23;20046;-76
2022/09/11 20:39:15;;;;;;;0.10;0.10;;;;;;;13.35;100.00;101869.22;10408059;28;20033;-76
2022/09/11 20:44:15;;;;;;;0.10;0.10;;;;;;;13.29;100.00;101869.81;10389345;28;20420;-76
2022/09/11 20:49:16;;;;;;;0.10;0.10;;;;;;;13.23;100.00;101865.00;10384651;28;20513;-76
2022/09/11 20:54:16;;;;;;;0.10;0.10;;;;;;;13.20;100.00;101857.28;10398504;28;20108;-76
2022/09/11 20:59:16;;;;;;;0.10;0.10;;;;;;;13.17;100.00;101852.25;10389280;28;20030;-76
2022/09/11 21:04:17;;;;;;;0.10;0.10;;;;;;;13.11;100.00;101847.50;10378887;28;20026;-76
2022/09/11 21:09:17;;;;;;;0.10;0.10;;;;;;;13.04;100.00;101849.94;10386291;28;20021;-76
2022/09/11 21:14:18;;;;;;;0.10;0.10;;;;;;;12.93;100.00;101843.97;10372278;28;20025;-76
2022/09/11 21:19:18;;;;;;;0.10;0.10;;;;;;;12.78;100.00;101840.94;10384307;28;20267;-76
2022/09/11 21:24:18;;;;;;;0.10;0.10;;;;;;;12.61;100.00;101840.75;10400066;28;20068;-76
2022/09/11 21:29:18;;;;;;;0.10;0.10;;;;;;;12.50;100.00;101840.91;10403199;28;20028;-76
2022/09/11 21:34:19;;;;;;;0.10;0.10;;;;;;;12.40;100.00;101832.13;10392035;28;20028;-76
2022/09/11 21:39:19;;;;;;;0.10;0.10;;;;;;;12.26;100.00;101825.41;10381305;28;20048;-76
2022/09/11 21:44:19;;;;;;;0.10;0.10;;;;;;;12.14;100.00;101823.91;10382992;28;20075;-76
2022/09/11 21:49:20;;;;;;;0.03;0.03;;;;;;;11.95;100.00;101816.78;10396349;28;20022;-76
2022/09/11 21:54:20;;;;;;;0.10;0.10;;;;;;;11.74;100.00;101816.94;10397071;28;20041;-76
2022/09/11 21:59:20;;;;;;;0.00;0.00;;;;;;;11.62;100.00;101816.25;10394592;28;20014;-77
2022/09/11 22:04:20;;;;;;;0.10;0.10;;;;;;;11.48;100.00;101814.00;10397399;28;20014;-76
2022/09/11 22:09:21;;;;;;;0.10;0.10;;;;;;;11.24;100.00;101817.91;10402683;28;20021;-76
2022/09/11 22:14:21;;;;;;;0.10;0.10;;;;;;;11.08;100.00;101820.28;10370633;28;20026;-76
2022/09/11 22:19:22;;;;;;;0.10;0.10;;;;;;;10.98;100.00;101824.78;10398294;28;20029;-76
2022/09/11 22:24:22;;;;;;;0.10;0.10;;;;;;;10.84;100.00;101820.66;10401406;28;20048;-76
2022/09/11 22:29:22;;;;;;;0.00;0.00;;;;;;;10.75;100.00;101824.97;10375173;28;20261;-76
2022/09/11 22:34:23;;;;;;;0.08;0.08;;;;;;;10.72;100.00;101821.75;10390293;28;20427;-76
2022/09/11 22:39:23;;;;;;;0.00;0.00;;;;;;;10.65;100.00;101822.31;10390731;28;20094;-76
2022/09/11 22:44:24;;;;;;;0.10;0.10;;;;;;;10.63;100.00;101826.06;10381795;28;20014;-76
2022/09/11 22:49:24;;;;;;;0.10;0.10;;;;;;;10.58;100.00;101815.81;10411771;28;20060;-75
2022/09/11 22:54:24;;;;;;;0.10;0.10;;;;;;;10.51;100.00;101814.69;10384172;28;20022;-75
2022/09/11 22:59:25;;;;;;;0.08;0.08;;;;;;;10.50;100.00;101813.00;10374093;28;20029;-74
2022/09/11 23:04:25;;;;;;;0.10;0.10;;;;;;;10.44;100.00;101821.50;10406153;28;20072;-75